Time;durP1;ratioP1;P1;durP2;ratioP2;P2;SDS_P1;SDS_P2;PMS_P1;PMS_P2;Temp;Humidity;BMP_temperature;BMP_pressure;BME280_temperature;BME280_humidity;BME280_pressure;Samples;Min_cycle;Max_cycle;Signal;HPM_P1;HPM_P2
2021/03/08 00:00:35;;;;;;;18.95;12.60;;;4.70;79.10;;;;;;5051267;28;20041;-75
2021/03/08 00:03:02;;;;;;;18.48;12.13;;;2.90;78.50;;;;;;5050001;28;20379;-75
2021/03/08 00:05:28;;;;;;;21.80;12.90;;;2.90;79.10;;;;;;5049881;28;20053;-79
2021/03/08 00:07:54;;;;;;;19.42;12.38;;;2.90;79.20;;;;;;5047988;28;20049;-75
2021/03/08 00:10:21;;;;;;;17.98;11.65;;;2.90;79.20;;;;;;5050183;28;20140;-76
2021/03/08 00:12:48;;;;;;;21.55;13.77;;;2.80;79.10;;;;;;5051542;28;20060;-76
2021/03/08 00:15:16;;;;;;;21.13;12.18;;;2.90;79.60;;;;;;5051380;28;20426;-75
2021/03/08 00:17:42;;;;;;;22.58;13.85;;;2.80;80.40;;;;;;5053044;28;20060;-76
2021/03/08 00:20:11;;;;;;;21.40;13.30;;;2.80;81.80;;;;;;5044428;28;20060;-78
2021/03/08 00:22:37;;;;;;;22.67;14.32;;;4.70;82.10;;;;;;5051851;28;20064;-75
2021/03/08 00:25:08;;;;;;;19.88;12.23;;;2.80;81.90;;;;;;5050974;28;20049;-76
2021/03/08 00:27:34;;;;;;;22.50;13.63;;;2.80;82.30;;;;;;5044615;28;20033;-76
2021/03/08 00:30:00;;;;;;;20.90;13.32;;;2.80;82.80;;;;;;5048064;28;20376;-75
2021/03/08 00:32:25;;;;;;;23.35;13.45;;;2.70;83.00;;;;;;5044921;28;20040;-77
2021/03/08 00:34:51;;;;;;;21.13;13.27;;;2.70;83.50;;;;;;5046542;28;20146;-74
2021/03/08 00:37:18;;;;;;;22.50;13.00;;;;;;;;;;5049388;28;20040;-75
2021/03/08 00:39:44;;;;;;;20.83;13.63;;;2.70;84.10;;;;;;5050791;28;20045;-75
2021/03/08 00:42:09;;;;;;;24.83;14.43;;;2.60;84.60;;;;;;5040058;28;20119;-76
2021/03/08 00:44:35;;;;;;;21.23;12.95;;;2.60;84.90;;;;;;5046546;28;20110;-76
2021/03/08 00:47:01;;;;;;;21.73;13.55;;;2.60;85.80;;;;;;5044035;28;20500;-76
2021/03/08 00:49:27;;;;;;;24.83;13.93;;;3.10;86.50;;;;;;5047997;28;20410;-77
2021/03/08 00:51:53;;;;;;;22.98;14.52;;;2.50;86.10;;;;;;5043822;28;20037;-76
2021/03/08 00:54:19;;;;;;;23.33;14.88;;;2.50;86.80;;;;;;5045646;28;20182;-76
2021/03/08 00:56:45;;;;;;;24.38;14.68;;;2.50;88.60;;;;;;5047058;28;20513;-76
2021/03/08 00:59:11;;;;;;;24.40;14.35;;;2.50;89.10;;;;;;5049242;28;20048;-75
2021/03/08 01:01:37;;;;;;;23.85;14.35;;;2.40;90.10;;;;;;5042794;28;20044;-75
2021/03/08 01:04:03;;;;;;;21.98;15.05;;;2.40;90.60;;;;;;5046710;28;20044;-76
2021/03/08 01:06:29;;;;;;;27.08;16.27;;;2.40;90.70;;;;;;5048113;28;20106;-76
2021/03/08 01:08:54;;;;;;;23.25;14.75;;;2.30;90.50;;;;;;5040749;28;20542;-76
2021/03/08 01:11:20;;;;;;;22.95;14.30;;;2.30;90.50;;;;;;5045551;28;20108;-76
2021/03/08 01:13:46;;;;;;;26.58;15.80;;;2.30;90.40;;;;;;5043762;28;20048;-76
2021/03/08 01:16:11;;;;;;;23.88;14.95;;;2.20;90.40;;;;;;5051633;28;20117;-76
2021/03/08 01:18:37;;;;;;;26.42;15.98;;;2.20;90.70;;;;;;5051279;28;20048;-76
2021/03/08 01:21:04;;;;;;;24.02;14.60;;;2.20;90.90;;;;;;5048469;28;20048;-77
2021/03/08 01:23:32;;;;;;;26.67;15.73;;;2.20;91.10;;;;;;5047042;28;20650;-75
2021/03/08 01:25:57;;;;;;;27.40;15.13;;;3.90;91.50;;;;;;5047261;28;20450;-77
2021/03/08 01:28:23;;;;;;;23.10;14.90;;;2.20;91.00;;;;;;5047116;28;20101;-75
2021/03/08 01:30:49;;;;;;;26.00;15.27;;;2.20;91.00;;;;;;5051760;28;20491;-76
2021/03/08 01:33:16;;;;;;;29.15;16.60;;;2.10;91.20;;;;;;5049430;28;20037;-76
2021/03/08 01:35:42;;;;;;;25.80;16.23;;;2.10;91.30;;;;;;5049602;28;20033;-76
2021/03/08 01:38:08;;;;;;;26.02;15.18;;;2.00;91.40;;;;;;5043302;28;20091;-76
2021/03/08 01:40:38;;;;;;;25.13;16.08;;;2.00;91.50;;;;;;5043392;28;20403;-76
2021/03/08 01:43:04;;;;;;;24.73;16.05;;;1.90;91.70;;;;;;5046596;28;20040;-76
2021/03/08 01:45:31;;;;;;;29.90;16.60;;;1.90;91.80;;;;;;5046169;28;20045;-77
2021/03/08 01:47:57;;;;;;;26.65;15.43;;;1.90;92.40;;;;;;5044878;28;20048;-76
2021/03/08 01:50:30;;;;;;;29.88;16.92;;;1.80;92.20;;;;;;5044079;28;20078;-75
2021/03/08 01:52:58;;;;;;;26.85;16.52;;;1.80;92.50;;;;;;5045150;28;20029;-77
2021/03/08 01:55:25;;;;;;;29.08;17.20;;;1.70;92.70;;;;;;5039810;28;20032;-76
2021/03/08 01:57:52;;;;;;;28.80;16.40;;;1.70;92.90;;;;;;5050708;28;20060;-76
2021/03/08 02:00:18;;;;;;;28.13;16.73;;;1.70;93.20;;;;;;5047846;28;20037;-75
2021/03/08 02:02:45;;;;;;;30.60;17.38;;;1.70;93.00;;;;;;5046506;28;20041;-75
2021/03/08 02:05:17;;;;;;;30.65;16.30;;;1.70;93.20;;;;;;5055124;28;20041;-76
2021/03/08 02:07:44;;;;;;;26.95;16.17;;;;;;;;;;5049201;28;20586;-75
2021/03/08 02:10:17;;;;;;;28.65;17.65;;;1.70;93.50;;;;;;5045398;28;20025;-75
2021/03/08 02:12:46;;;;;;;29.63;16.70;;;1.70;93.50;;;;;;5042784;28;20176;-75
2021/03/08 02:15:39;;;;;;;29.63;18.58;;;1.70;93.60;;;;;;5041250;28;20119;-75
2021/03/08 02:18:13;;;;;;;28.48;16.65;;;1.70;93.70;;;;;;5052109;28;20494;-75
2021/03/08 02:20:45;;;;;;;30.90;18.13;;;1.60;93.90;;;;;;5046778;28;20034;-75
2021/03/08 02:23:11;;;;;;;29.83;17.45;;;;;;;;;;5042800;28;20041;-75
2021/03/08 02:26:14;;;;;;;31.15;17.65;;;1.70;93.80;;;;;;5050401;28;20040;-78
2021/03/08 02:29:22;;;;;;;29.60;16.23;;;1.70;94.10;;;;;;5055953;28;20448;-75
2021/03/08 02:31:51;;;;;;;31.70;16.55;;;1.60;93.90;;;;;;4983816;28;21319;-76
2021/03/08 02:34:31;;;;;;;30.38;17.25;;;1.60;94.00;;;;;;5032625;28;20048;-76
2021/03/08 02:37:03;;;;;;;27.58;16.40;;;1.60;94.20;;;;;;5044217;28;20029;-75
2021/03/08 02:39:34;;;;;;;32.75;17.33;;;2.80;94.70;;;;;;5046571;28;20036;-76
2021/03/08 02:42:03;;;;;;;25.75;15.43;;;1.60;94.10;;;;;;5040253;28;20945;-76
2021/03/08 02:44:34;;;;;;;31.58;17.50;;;1.50;94.20;;;;;;5041586;28;20049;-76
2021/03/08 02:47:00;;;;;;;30.85;17.27;;;1.40;94.40;;;;;;5042181;28;20039;-75
2021/03/08 02:49:31;;;;;;;30.13;17.00;;;1.40;94.50;;;;;;5042913;28;20036;-76
2021/03/08 02:51:58;;;;;;;32.20;17.55;;;1.40;94.50;;;;;;5047693;28;20037;-76
2021/03/08 02:54:27;;;;;;;30.88;16.33;;;1.40;94.70;;;;;;5048160;28;20040;-75
2021/03/08 02:56:58;;;;;;;30.50;16.95;;;1.30;94.50;;;;;;5035858;28;20083;-76
2021/03/08 02:59:26;;;;;;;30.17;16.25;;;1.50;94.60;;;;;;5041667;28;20033;-75
2021/03/08 03:01:54;;;;;;;30.75;18.05;;;1.40;94.80;;;;;;5046502;28;20075;-74
2021/03/08 03:04:22;;;;;;;31.48;17.75;;;1.40;94.50;;;;;;5044175;28;20037;-75
2021/03/08 03:06:50;;;;;;;30.48;18.42;;;1.30;95.00;;;;;;5042987;28;20128;-76
2021/03/08 03:09:19;;;;;;;32.15;18.17;;;1.30;95.50;;;;;;5050151;28;20094;-75
2021/03/08 03:11:57;;;;;;;33.90;18.10;;;1.30;95.30;;;;;;5051365;28;20029;-76
2021/03/08 03:14:24;;;;;;;34.10;19.67;;;1.30;95.40;;;;;;5062664;28;20522;-76
2021/03/08 03:16:54;;;;;;;36.10;19.60;;;1.20;95.40;;;;;;5048463;28;20124;-75
2021/03/08 03:19:22;;;;;;;33.50;20.15;;;1.20;95.80;;;;;;5052801;28;20044;-75
2021/03/08 03:21:50;;;;;;;33.63;18.83;;;1.20;95.70;;;;;;5050236;28;20043;-75
2021/03/08 03:24:16;;;;;;;31.85;18.50;;;1.20;95.60;;;;;;5050143;28;20086;-75
2021/03/08 03:26:43;;;;;;;33.42;18.33;;;1.10;95.70;;;;;;5030903;28;20109;-76
2021/03/08 03:29:10;;;;;;;31.25;19.27;;;1.10;95.60;;;;;;5051094;28;20029;-77
2021/03/08 03:31:39;;;;;;;36.40;19.85;;;1.10;95.80;;;;;;5050568;28;20017;-76
2021/03/08 03:34:06;;;;;;;33.63;18.87;;;1.10;95.90;;;;;;5044685;28;20087;-78
2021/03/08 03:36:35;;;;;;;31.80;18.83;;;1.40;96.10;;;;;;5048934;28;20091;-76
2021/03/08 03:39:05;;;;;;;32.45;18.90;;;1.00;95.90;;;;;;5049723;28;20072;-75
2021/03/08 03:41:32;;;;;;;31.25;18.52;;;1.00;96.00;;;;;;5046519;28;20132;-77
2021/03/08 03:43:58;;;;;;;35.10;17.83;;;;;;;;;;5047526;28;20127;-75
2021/03/08 03:46:25;;;;;;;37.95;18.63;;;;;;;;;;5047018;28;20035;-76
2021/03/08 03:48:51;;;;;;;36.13;19.30;;;1.00;96.10;;;;;;5052517;28;20406;-75
2021/03/08 03:51:17;;;;;;;32.97;18.67;;;;;;;;;;5049427;28;20065;-75
2021/03/08 03:53:43;;;;;;;37.35;19.33;;;1.00;96.40;;;;;;5044411;28;20041;-75
2021/03/08 03:56:11;;;;;;;35.58;18.63;;;1.00;96.60;;;;;;5054914;28;20037;-76
2021/03/08 03:58:55;;;;;;;35.70;20.08;;;1.10;96.80;;;;;;5050242;28;20041;-75
2021/03/08 04:01:28;;;;;;;34.00;18.42;;;1.00;96.70;;;;;;5048094;28;20537;-75
2021/03/08 04:03:56;;;;;;;37.78;19.67;;;0.90;97.10;;;;;;5044931;28;20045;-76
2021/03/08 04:06:33;;;;;;;32.78;18.58;;;1.20;96.80;;;;;;5050645;28;20115;-75
2021/03/08 04:09:00;;;;;;;33.78;19.73;;;1.10;96.50;;;;;;5048158;28;20025;-74
2021/03/08 04:11:31;;;;;;;36.90;18.50;;;1.10;96.70;;;;;;5054091;28;20112;-74
2021/03/08 04:14:01;;;;;;;33.97;19.33;;;1.10;96.70;;;;;;5044541;28;20048;-75
2021/03/08 04:16:30;;;;;;;35.28;18.10;;;1.10;96.50;;;;;;5052641;28;20040;-75
2021/03/08 04:18:58;;;;;;;32.00;18.70;;;1.10;96.60;;;;;;5048138;28;20059;-76
2021/03/08 04:21:25;;;;;;;33.20;18.52;;;1.10;96.50;;;;;;5045329;28;20453;-76
2021/03/08 04:23:53;;;;;;;34.97;18.55;;;1.00;96.80;;;;;;5046878;28;20033;-76
2021/03/08 04:26:20;;;;;;;33.40;18.83;;;1.00;96.70;;;;;;5052339;28;20112;-75
2021/03/08 04:28:47;;;;;;;36.30;19.75;;;1.00;96.90;;;;;;5048826;28;20036;-75
2021/03/08 04:31:13;;;;;;;32.00;18.63;;;1.00;96.70;;;;;;5048563;28;20028;-76
2021/03/08 04:33:42;;;;;;;32.50;18.52;;;1.00;97.10;;;;;;5045003;28;20048;-76
2021/03/08 04:36:09;;;;;;;34.63;18.42;;;1.00;97.10;;;;;;5048999;28;20158;-76
2021/03/08 04:38:36;;;;;;;34.00;18.48;;;0.90;96.50;;;;;;5053359;28;20033;-75
2021/03/08 04:41:03;;;;;;;30.37;18.27;;;0.90;96.80;;;;;;5051149;28;20037;-76
2021/03/08 04:43:29;;;;;;;29.90;17.35;;;1.00;96.60;;;;;;5051619;28;20037;-75
2021/03/08 04:45:56;;;;;;;29.50;17.83;;;1.00;96.30;;;;;;5024426;28;20041;-76
2021/03/08 04:48:23;;;;;;;33.63;18.50;;;1.00;96.00;;;;;;5048726;28;20033;-75
2021/03/08 04:50:52;;;;;;;30.88;17.60;;;1.00;95.90;;;;;;5044472;28;20057;-76
2021/03/08 04:53:17;;;;;;;31.80;18.33;;;1.00;96.00;;;;;;5055486;28;20020;-75
2021/03/08 04:55:45;;;;;;;31.95;17.73;;;1.00;95.80;;;;;;5046767;28;20632;-75
2021/03/08 04:58:11;;;;;;;32.08;17.63;;;1.00;96.10;;;;;;5042334;28;20049;-75
2021/03/08 05:00:37;;;;;;;31.60;18.08;;;0.90;96.20;;;;;;5048242;28;20056;-75
2021/03/08 05:03:04;;;;;;;31.85;19.40;;;0.90;96.40;;;;;;5048732;28;20510;-77
2021/03/08 05:05:30;;;;;;;30.37;18.17;;;0.90;96.50;;;;;;5049900;28;20040;-75
2021/03/08 05:08:01;;;;;;;31.35;18.10;;;0.90;96.50;;;;;;5047198;28;20128;-76
2021/03/08 05:10:30;;;;;;;34.05;19.20;;;0.90;96.60;;;;;;5047612;28;20569;-76
2021/03/08 05:12:58;;;;;;;31.95;18.35;;;0.70;96.80;;;;;;5044175;28;20483;-76
2021/03/08 05:15:25;;;;;;;32.15;17.98;;;0.70;97.00;;;;;;5058597;28;20118;-76
2021/03/08 05:17:55;;;;;;;29.80;17.50;;;0.70;97.30;;;;;;5049453;28;20047;-75
2021/03/08 05:20:22;;;;;;;34.07;19.07;;;0.60;97.30;;;;;;5050675;28;20091;-76
2021/03/08 05:22:49;;;;;;;36.40;18.73;;;0.60;97.30;;;;;;5049377;28;20045;-75
2021/03/08 05:25:15;;;;;;;31.87;19.60;;;0.60;97.40;;;;;;5043866;28;20041;-75
2021/03/08 05:27:44;;;;;;;33.97;18.63;;;0.50;97.60;;;;;;5064821;28;20083;-76
2021/03/08 05:30:15;;;;;;;32.97;18.67;;;0.50;97.80;;;;;;5047577;28;20037;-77
2021/03/08 05:32:47;;;;;;;32.37;19.80;;;0.50;98.00;;;;;;5052391;28;20528;-76
2021/03/08 05:35:15;;;;;;;32.87;19.10;;;0.50;97.90;;;;;;5050625;28;20041;-77
2021/03/08 05:37:42;;;;;;;31.67;19.53;;;0.50;97.90;;;;;;5046006;28;20509;-76
2021/03/08 05:40:27;;;;;;;31.38;17.27;;;0.60;97.80;;;;;;5046575;28;20543;-77
2021/03/08 05:43:04;;;;;;;29.20;17.57;;;0.60;97.30;;;;;;5046964;28;20057;-76
2021/03/08 05:45:52;;;;;;;33.75;16.85;;;0.60;97.50;;;;;;5041639;28;20037;-76
2021/03/08 05:48:57;;;;;;;30.10;16.60;;;0.70;97.20;;;;;;5049028;28;20054;-76
2021/03/08 05:51:24;;;;;;;29.27;16.50;;;;;;;;;;5047985;28;20102;-75
2021/03/08 05:54:07;;;;;;;27.23;16.30;;;0.70;96.50;;;;;;5046818;28;20041;-75
2021/03/08 05:56:54;;;;;;;25.47;15.53;;;0.70;96.60;;;;;;5053020;28;20131;-77
2021/03/08 05:59:34;;;;;;;30.57;16.70;;;0.70;96.50;;;;;;5044096;28;20042;-78
2021/03/08 06:02:21;;;;;;;32.40;18.13;;;0.60;96.80;;;;;;5055315;28;20041;-74
2021/03/08 06:05:05;;;;;;;31.23;16.10;;;0.60;96.90;;;;;;5047348;28;20047;-76
2021/03/08 06:08:21;;;;;;;26.70;16.13;;;0.50;96.90;;;;;;5048878;28;20051;-77
2021/03/08 06:11:11;;;;;;;27.23;16.63;;;0.50;97.10;;;;;;5049942;28;20083;-76
2021/03/08 06:13:51;;;;;;;31.63;17.30;;;0.50;97.20;;;;;;5044712;28;20100;-75
2021/03/08 06:16:36;;;;;;;29.23;15.88;;;0.50;97.20;;;;;;5052612;28;20123;-75
2021/03/08 06:19:04;;;;;;;30.67;16.67;;;0.60;97.00;;;;;;5054529;28;20123;-77
2021/03/08 06:21:35;;;;;;;29.27;17.07;;;0.60;97.00;;;;;;5047023;28;20040;-76
2021/03/08 06:24:01;;;;;;;;;;;0.60;97.20;;;;;;5045407;28;20041;-77
2021/03/08 06:26:30;;;;;;;28.90;15.90;;;0.60;96.80;;;;;;5046855;28;19909;-76
2021/03/08 06:28:59;;;;;;;31.93;16.77;;;0.60;97.00;;;;;;5045300;28;20774;-76
2021/03/08 06:31:28;;;;;;;27.87;16.83;;;0.60;97.00;;;;;;5042294;28;20469;-76
2021/03/08 06:33:55;;;;;;;27.50;15.50;;;0.60;97.20;;;;;;5040102;28;20055;-76
2021/03/08 06:36:24;;;;;;;28.63;16.47;;;0.60;96.80;;;;;;5038338;28;20136;-76
2021/03/08 06:38:51;;;;;;;27.07;15.83;;;0.70;96.70;;;;;;5039493;28;20037;-76
2021/03/08 06:41:20;;;;;;;28.40;17.73;;;0.60;96.80;;;;;;5041636;28;20657;-77
2021/03/08 06:43:46;;;;;;;26.87;15.97;;;0.60;96.70;;;;;;5046384;28;20048;-76
2021/03/08 06:46:14;;;;;;;27.80;15.70;;;0.60;96.80;;;;;;5051555;28;20025;-77
2021/03/08 06:48:40;;;;;;;24.00;14.40;;;0.70;96.90;;;;;;5050285;28;20031;-75
2021/03/08 06:51:08;;;;;;;26.70;16.13;;;0.80;96.60;;;;;;5052287;28;20036;-75
2021/03/08 06:53:34;;;;;;;27.65;15.63;;;0.80;96.10;;;;;;5049279;28;20802;-77
2021/03/08 06:56:23;;;;;;;29.07;15.17;;;0.80;96.10;;;;;;5050405;28;20029;-74
2021/03/08 06:59:15;;;;;;;27.27;15.80;;;0.80;96.40;;;;;;5047923;28;20037;-76
2021/03/08 07:01:42;;;;;;;29.45;16.35;;;0.80;96.10;;;;;;5038393;28;20395;-76
2021/03/08 07:04:12;;;;;;;27.63;14.63;;;0.90;96.20;;;;;;5045785;28;20114;-77
2021/03/08 07:06:38;;;;;;;27.33;14.60;;;1.00;96.10;;;;;;5048567;28;20446;-75
2021/03/08 07:09:12;;;;;;;22.23;12.97;;;1.00;96.30;;;;;;5046050;28;20068;-75
2021/03/08 07:11:38;;;;;;;25.02;14.20;;;1.10;95.70;;;;;;5054229;28;20029;-74
2021/03/08 07:14:18;;;;;;;21.15;13.45;;;1.20;95.50;;;;;;5040670;28;20033;-74
2021/03/08 07:16:44;;;;;;;24.48;13.68;;;1.30;94.90;;;;;;5040029;28;20049;-75
2021/03/08 07:19:10;;;;;;;21.98;13.50;;;1.50;94.80;;;;;;5042495;28;20517;-75
2021/03/08 07:21:36;;;;;;;23.60;13.20;;;1.50;94.30;;;;;;5044825;28;20029;-75
2021/03/08 07:24:13;;;;;;;22.17;13.85;;;1.60;94.40;;;;;;5038755;28;20075;-75
2021/03/08 07:26:56;;;;;;;23.27;12.85;;;1.80;93.50;;;;;;5038975;28;20553;-74
2021/03/08 07:29:23;;;;;;;21.10;12.70;;;1.80;93.60;;;;;;5045519;28;20041;-74
2021/03/08 07:31:51;;;;;;;23.60;13.20;;;1.90;93.60;;;;;;5044982;28;20573;-75
2021/03/08 07:34:19;;;;;;;21.85;12.50;;;2.00;93.50;;;;;;5045840;28;20048;-74
2021/03/08 07:36:57;;;;;;;35.75;20.02;;;2.10;92.80;;;;;;5045300;28;20049;-75
2021/03/08 07:39:22;;;;;;;24.48;13.13;;;2.10;93.20;;;;;;5042848;28;20542;-74
2021/03/08 07:41:56;;;;;;;19.73;11.70;;;2.20;92.70;;;;;;5048333;28;20094;-75
2021/03/08 07:44:25;;;;;;;21.83;11.93;;;2.30;92.60;;;;;;5052550;28;20045;-76
2021/03/08 07:47:10;;;;;;;19.95;11.65;;;2.50;91.90;;;;;;5049218;28;20131;-75
2021/03/08 07:49:37;;;;;;;18.27;10.60;;;2.40;92.00;;;;;;5052103;28;20347;-75
2021/03/08 07:52:14;;;;;;;22.80;12.50;;;2.60;91.80;;;;;;5054583;28;20580;-74
2021/03/08 07:54:53;;;;;;;20.08;11.40;;;2.70;91.70;;;;;;5048357;28;20399;-75
2021/03/08 07:57:20;;;;;;;19.85;11.98;;;2.80;91.10;;;;;;5048119;28;20056;-76
2021/03/08 07:59:46;;;;;;;19.80;12.00;;;3.00;90.70;;;;;;5055470;28;20051;-77
2021/03/08 08:02:13;;;;;;;20.52;10.93;;;3.10;90.50;;;;;;5052371;28;20040;-76
2021/03/08 08:04:39;;;;;;;19.23;11.95;;;3.20;90.00;;;;;;5049639;28;20041;-76
2021/03/08 08:07:07;;;;;;;18.95;12.10;;;3.20;89.90;;;;;;5045694;28;20033;-76
2021/03/08 08:09:39;;;;;;;18.30;10.93;;;3.30;89.50;;;;;;5044065;28;20029;-78
2021/03/08 08:12:14;;;;;;;19.30;11.55;;;3.50;88.30;;;;;;5044101;28;20079;-76
2021/03/08 08:14:41;;;;;;;21.73;11.07;;;3.60;87.60;;;;;;5048934;28;20040;-75
2021/03/08 08:17:09;;;;;;;15.82;10.20;;;3.80;86.60;;;;;;5038153;28;20465;-75
2021/03/08 08:19:46;;;;;;;19.30;11.48;;;4.00;85.50;;;;;;5041236;28;20041;-76
2021/03/08 08:22:20;;;;;;;17.25;10.77;;;4.10;84.50;;;;;;5046032;28;20375;-75
2021/03/08 08:24:47;;;;;;;21.25;10.65;;;4.20;82.50;;;;;;5040774;28;20122;-76
2021/03/08 08:27:16;;;;;;;17.80;10.85;;;4.40;83.20;;;;;;5043297;28;20033;-77
2021/03/08 08:29:45;;;;;;;15.35;9.05;;;4.40;83.60;;;;;;5042731;28;20033;-76
2021/03/08 08:32:10;;;;;;;14.20;8.75;;;4.30;83.30;;;;;;5043897;28;20505;-77
2021/03/08 08:34:38;;;;;;;12.75;8.00;;;4.50;82.90;;;;;;5041414;28;20040;-75
2021/03/08 08:37:27;;;;;;;14.95;9.00;;;4.60;81.40;;;;;;5044906;28;20111;-77
2021/03/08 08:39:53;;;;;;;15.98;8.80;;;4.60;82.00;;;;;;5045227;28;20040;-77
2021/03/08 08:42:20;;;;;;;19.30;9.82;;;4.60;82.30;;;;;;5052708;28;20044;-77
2021/03/08 08:44:54;;;;;;;13.90;8.75;;;4.60;81.20;;;;;;5047183;28;20051;-78
2021/03/08 08:47:20;;;;;;;14.02;8.00;;;4.80;80.60;;;;;;5047131;28;20469;-76
2021/03/08 08:49:48;;;;;;;13.10;7.72;;;4.90;79.80;;;;;;5059295;28;20048;-77
2021/03/08 08:52:14;;;;;;;11.77;7.93;;;5.20;78.20;;;;;;5040262;28;20104;-76
2021/03/08 08:54:49;;;;;;;13.93;8.20;;;5.30;76.90;;;;;;5046400;28;20045;-76
2021/03/08 08:57:14;;;;;;;12.43;8.27;;;5.40;76.90;;;;;;5043960;28;20502;-76
2021/03/08 08:59:49;;;;;;;16.15;7.15;;;5.50;77.30;;;;;;5045176;28;20040;-78
2021/03/08 09:02:23;;;;;;;11.98;7.35;;;5.40;75.90;;;;;;5048299;28;20041;-74
2021/03/08 09:04:49;;;;;;;10.75;6.55;;;5.60;75.20;;;;;;5042524;28;20025;-76
2021/03/08 09:07:22;;;;;;;11.38;6.95;;;5.70;74.80;;;;;;5046755;28;20402;-77
2021/03/08 09:09:51;;;;;;;12.40;6.65;;;5.80;74.10;;;;;;5045010;28;20037;-74
2021/03/08 09:12:31;;;;;;;11.80;7.03;;;5.90;73.40;;;;;;5044249;28;20029;-77
2021/03/08 09:15:02;;;;;;;;;;;5.90;72.90;;;;;;5044972;28;20168;-78
2021/03/08 09:17:32;;;;;;;14.52;6.45;;;5.90;73.10;;;;;;5055739;28;19913;-78
2021/03/08 09:19:58;;;;;;;11.35;6.55;;;6.00;72.10;;;;;;5046099;28;20043;-77
2021/03/08 09:22:27;;;;;;;10.57;6.15;;;6.00;71.70;;;;;;5040641;28;20030;-77
2021/03/08 09:24:58;;;;;;;11.43;6.63;;;6.00;71.50;;;;;;5047204;28;20037;-77
2021/03/08 09:27:26;;;;;;;;;;;5.90;71.60;;;;;;5045185;28;20042;-78
2021/03/08 09:29:53;;;;;;;11.63;5.80;;;7.90;73.10;;;;;;5042405;28;20021;-77
2021/03/08 09:32:19;;;;;;;13.85;6.15;;;6.10;72.10;;;;;;5048523;28;20112;-76
2021/03/08 09:34:45;;;;;;;8.90;5.43;;;6.30;70.90;;;;;;5050294;28;20037;-78
2021/03/08 09:37:13;;;;;;;8.20;4.85;;;6.30;69.20;;;;;;5041268;28;20040;-78
2021/03/08 09:39:54;;;;;;;10.02;6.00;;;6.20;69.60;;;;;;5045404;28;20291;-76
2021/03/08 09:42:20;;;;;;;12.02;6.03;;;6.40;67.90;;;;;;5046483;28;20041;-78
2021/03/08 09:44:49;;;;;;;10.98;5.47;;;6.40;68.70;;;;;;5048918;28;20032;-77
2021/03/08 09:47:15;;;;;;;10.88;6.07;;;6.50;68.00;;;;;;5055735;28;20040;-77
2021/03/08 09:49:48;;;;;;;11.93;6.97;;;6.50;67.40;;;;;;5046096;28;20102;-78
2021/03/08 09:52:39;;;;;;;11.80;5.72;;;6.50;66.60;;;;;;5046543;28;20825;-78
2021/03/08 09:55:11;;;;;;;10.60;6.57;;;6.50;65.80;;;;;;5045072;28;20124;-79
2021/03/08 09:57:40;;;;;;;11.43;6.55;;;6.50;66.70;;;;;;5045923;28;20125;-79
2021/03/08 10:00:07;;;;;;;9.05;5.60;;;6.50;66.20;;;;;;5045110;28;22060;-78
2021/03/08 10:02:34;;;;;;;12.45;5.68;;;;;;;;;;5049230;28;20106;-78
2021/03/08 10:05:01;;;;;;;9.40;5.50;;;6.70;64.50;;;;;;5048674;28;20498;-76
2021/03/08 10:07:28;;;;;;;11.18;5.82;;;6.70;65.00;;;;;;5046437;28;20048;-77
2021/03/08 10:10:13;;;;;;;10.73;5.90;;;6.70;64.70;;;;;;5053589;28;20980;-78
2021/03/08 10:12:40;;;;;;;10.13;5.53;;;6.90;63.20;;;;;;5047047;28;20406;-78
2021/03/08 10:15:08;;;;;;;9.65;5.55;;;6.90;63.80;;;;;;5038843;28;20045;-77
2021/03/08 10:17:35;;;;;;;10.15;4.78;;;7.00;63.00;;;;;;5040414;28;20948;-78
2021/03/08 10:20:05;;;;;;;10.07;5.03;;;7.00;62.10;;;;;;5044735;28;20041;-76
2021/03/08 10:22:35;;;;;;;9.45;5.13;;;7.10;61.50;;;;;;5046543;28;20041;-78
2021/03/08 10:25:19;;;;;;;9.18;4.28;;;7.20;60.90;;;;;;5045584;28;20052;-78
2021/03/08 10:27:50;;;;;;;8.85;4.80;;;7.20;59.60;;;;;;5047367;28;20848;-77
2021/03/08 10:30:16;;;;;;;10.43;5.70;;;7.10;58.70;;;;;;5040107;28;20033;-75
2021/03/08 10:32:43;;;;;;;8.95;4.47;;;7.10;58.80;;;;;;5043403;28;20506;-78
2021/03/08 10:35:10;;;;;;;9.40;4.82;;;7.10;58.90;;;;;;5043064;28;20102;-79
2021/03/08 10:37:39;;;;;;;9.45;4.50;;;7.20;58.90;;;;;;5043008;28;20056;-79
2021/03/08 10:40:06;;;;;;;9.02;4.60;;;7.30;57.20;;;;;;5045900;28;20065;-77
2021/03/08 10:42:32;;;;;;;8.73;4.47;;;;;;;;;;5038714;28;20051;-77
2021/03/08 10:44:59;;;;;;;7.93;4.60;;;7.50;56.00;;;;;;5042410;28;20041;-77
2021/03/08 10:47:25;;;;;;;7.97;4.40;;;7.60;56.30;;;;;;5040291;28;20043;-78
2021/03/08 10:49:53;;;;;;;9.80;4.88;;;7.60;56.50;;;;;;5046776;28;20041;-78
2021/03/08 10:52:22;;;;;;;8.30;4.63;;;7.60;55.60;;;;;;5046660;28;20044;-78
2021/03/08 10:54:48;;;;;;;7.93;4.30;;;7.70;55.60;;;;;;5058418;28;20041;-79
2021/03/08 10:57:14;;;;;;;9.05;4.68;;;7.70;54.40;;;;;;5044504;28;20040;-78
2021/03/08 10:59:48;;;;;;;10.52;5.05;;;7.80;53.80;;;;;;5057306;28;20045;-79
2021/03/08 11:02:15;;;;;;;9.75;6.00;;;7.90;54.30;;;;;;5043132;28;20519;-79
2021/03/08 11:04:48;;;;;;;9.65;5.45;;;8.00;54.50;;;;;;5044867;28;20029;-78
2021/03/08 11:07:14;;;;;;;13.05;5.80;;;8.10;54.60;;;;;;5055680;28;20045;-78
2021/03/08 11:09:46;;;;;;;8.93;5.05;;;8.00;53.90;;;;;;5042658;28;20379;-78
2021/03/08 11:12:20;;;;;;;9.23;5.20;;;7.80;54.60;;;;;;5044012;28;20132;-79
2021/03/08 11:14:52;;;;;;;7.65;4.60;;;7.90;54.90;;;;;;5045181;28;20098;-78
2021/03/08 11:17:31;;;;;;;9.02;5.10;;;8.00;53.90;;;;;;5042391;28;20041;-76
2021/03/08 11:20:30;;;;;;;10.50;5.25;;;8.30;53.60;;;;;;5043584;28;20037;-79
2021/03/08 11:23:06;;;;;;;10.30;4.93;;;8.50;52.70;;;;;;5033816;28;20045;-79
2021/03/08 11:25:33;;;;;;;8.63;4.63;;;8.50;52.50;;;;;;5041512;28;20415;-79
2021/03/08 11:28:01;;;;;;;8.88;4.53;;;9.30;51.60;;;;;;5042694;28;20052;-76
2021/03/08 11:30:28;;;;;;;8.88;5.35;;;8.70;50.80;;;;;;5040493;28;20045;-77
2021/03/08 11:32:57;;;;;;;10.77;5.85;;;8.70;52.20;;;;;;5046883;28;20045;-78
2021/03/08 11:35:28;;;;;;;12.23;5.55;;;8.80;52.50;;;;;;5047456;28;20067;-76
2021/03/08 11:38:02;;;;;;;9.23;5.13;;;8.80;53.30;;;;;;5043303;28;20088;-79
2021/03/08 11:40:29;;;;;;;10.02;5.78;;;8.30;52.00;;;;;;5050127;28;20037;-76
2021/03/08 11:42:56;;;;;;;10.73;5.10;;;8.00;53.50;;;;;;5048487;28;20565;-80
2021/03/08 11:45:23;;;;;;;12.38;5.40;;;8.00;54.50;;;;;;5046915;28;20049;-79
2021/03/08 11:47:53;;;;;;;7.90;4.95;;;8.20;53.90;;;;;;5045496;28;20553;-78
2021/03/08 11:50:21;;;;;;;10.68;5.80;;;8.70;51.90;;;;;;5047951;28;20075;-81
2021/03/08 11:52:48;;;;;;;9.30;5.13;;;8.70;51.90;;;;;;5046629;28;20101;-79
2021/03/08 11:55:14;;;;;;;9.45;5.07;;;8.90;50.80;;;;;;5048598;28;20064;-79
2021/03/08 11:57:44;;;;;;;8.23;4.60;;;8.70;51.10;;;;;;5044447;28;20040;-79
2021/03/08 12:00:16;;;;;;;7.60;4.47;;;9.00;51.70;;;;;;5043682;28;20030;-79
2021/03/08 12:02:42;;;;;;;8.45;5.13;;;9.10;51.00;;;;;;5046795;28;20047;-78
2021/03/08 12:05:09;;;;;;;12.45;5.25;;;9.10;50.20;;;;;;5053483;28;20079;-77
2021/03/08 12:07:38;;;;;;;7.93;5.10;;;8.80;51.20;;;;;;5040186;28;20103;-77
2021/03/08 12:10:05;;;;;;;9.80;4.97;;;9.00;51.80;;;;;;5046451;28;20029;-80
2021/03/08 12:12:31;;;;;;;10.23;5.28;;;9.00;51.60;;;;;;5046620;28;20036;-79
2021/03/08 12:14:57;;;;;;;10.20;5.40;;;9.10;51.30;;;;;;5045620;28;20036;-81
2021/03/08 12:17:23;;;;;;;10.05;5.68;;;9.00;51.60;;;;;;5049141;28;20037;-78
2021/03/08 12:19:49;;;;;;;11.73;6.28;;;8.90;51.90;;;;;;5047823;28;20029;-78
2021/03/08 12:22:15;;;;;;;10.57;5.80;;;8.90;51.50;;;;;;5046437;28;20047;-78
2021/03/08 12:24:41;;;;;;;11.18;5.65;;;8.70;52.40;;;;;;5041915;28;20372;-76
2021/03/08 12:27:07;;;;;;;9.45;5.90;;;8.90;52.60;;;;;;5046005;28;20517;-78
2021/03/08 12:29:34;;;;;;;10.88;5.57;;;8.90;52.40;;;;;;5059730;28;20467;-77
2021/03/08 12:32:00;;;;;;;11.57;5.75;;;9.20;52.70;;;;;;5042852;28;20041;-81
2021/03/08 12:34:26;;;;;;;9.93;5.60;;;9.40;51.90;;;;;;5049203;28;20123;-78
2021/03/08 12:36:52;;;;;;;8.50;5.45;;;11.20;52.50;;;;;;5045652;28;20135;-77
2021/03/08 12:39:18;;;;;;;9.98;5.50;;;9.50;51.50;;;;;;5044875;28;20052;-77
2021/03/08 12:41:45;;;;;;;10.20;5.20;;;9.40;50.30;;;;;;5044008;28;20037;-77
2021/03/08 12:44:11;;;;;;;8.57;5.47;;;9.30;51.20;;;;;;5044862;28;20386;-78
2021/03/08 12:46:36;;;;;;;12.30;6.03;;;9.20;51.50;;;;;;5048589;28;20033;-78
2021/03/08 12:49:02;;;;;;;11.30;5.68;;;11.00;52.30;;;;;;5043274;28;20074;-77
2021/03/08 12:51:28;;;;;;;10.65;5.53;;;9.30;51.60;;;;;;5043713;28;20044;-79
2021/03/08 12:53:54;;;;;;;10.95;5.20;;;9.40;51.40;;;;;;5045530;28;20094;-77
2021/03/08 12:56:19;;;;;;;11.10;5.22;;;9.60;51.20;;;;;;5047771;28;20037;-79
2021/03/08 12:58:45;;;;;;;8.70;5.43;;;9.60;51.30;;;;;;5044593;28;20095;-76